Tiempo atmosférico en la estación meteorológica de Cabacés, Tarragona (360 m.)



Fecha
DESCASC
Temp. máxima en grados centígrados (hora)
DESCASC
Temp. mínima en grados centígrados (hora)
DESCASC
Temp. media en grados centígrados
DESCASC
Racha de viento máxima en m/sg (hora)
DESCASC
Velocidad máxima media en intervalos de 10 minutos(hora)
DESCASC
Precipitaciones diarias en mm
DESCASC
Precipitaciones de 00:00 a 06:00 en mm
DESCASC
Precipitaciones de 06:00 a 12:00 en mm
DESCASC
Precipitaciones de 12:00 a 18:00 en mm
DESCASC
Precipitaciones de 18:00 a 24:00 en mm
DESCASC
16-06-2019 29.3 (15:20) 14.4 (07:10) 21.8 9.72 (16:40) 3.61 (01:20) 0 0 0 0 0
15-06-2019 28.6 (17:50) 14.9 (07:20) 21.8 8.89 (15:10) 3.61 (01:00) 0 0 0 0 0
14-06-2019 30.1 (18:20) 15.2 (03:30) 22.7 8.61 (23:59) 2.78 (21:30) 0 0 0 0 0
13-06-2019 24.7 (15:00) 14.3 (00:00) 19.5 9.72 (17:20) 3.61 (21:40) 0 0 0 0 0
12-06-2019 24.4 (16:50) 7.6 (00:00) 16 8.61 (19:50) 3.06 (20:20) 0 0 0 0 0
11-06-2019 17.7 (00:00) 11.6 (00:00) 14.7 8.33 (16:10) 3.06 (15:50) 0.8 0.2 0.4 0.2 0
10-06-2019 26.7 (18:10) 13.6 (00:00) 20.2 9.17 (14:30) 3.06 (13:10) 0 0 0 0 0
09-06-2019 28.1 (17:10) 15.8 (00:00) 22 7.22 (22:00) 2.78 (20:50) 0 0 0 0 0
08-06-2019 25.1 (14:20) 13.1 (00:00) 19.1 9.72 (18:20) 4.44 (19:10) 0 0 0 0 0
07-06-2019 25.8 (17:50) 16.2 (00:00) 21 11.67 (02:10) 4.72 (01:50) 0 0 0 0 0
06-06-2019 23 (13:20) 10.6 (00:00) 16.8 12.78 (17:50) 5.56 (16:30) 0 0 0 0 0
05-06-2019 20.8 (17:10) 15.1 (00:00) 17.9 12.22 (00:40) 4.44 (01:00) 0 0 0 0 0
04-06-2019 27.1 (15:20) 18.9 (00:00) 23 13.89 (22:50) 5.28 (17:30) 0 0 0 0 0
03-06-2019 27.9 (13:40) 19.8 (00:00) 23.8 11.11 (16:20) 5 (19:40) 0 0 0 0 0
02-06-2019 29 (15:50) 15.5 (00:00) 22.3 10.28 (18:10) 4.72 (18:30) 0 0 0 0 0
01-06-2019 29.4 (15:00) 15.5 (00:00) 22.4 8.33 (19:00) 3.61 (19:00) 0 0 0 0 0
31-05-2019 27.1 (14:00) 14.8 (00:00) 21 8.89 (18:50) 3.33 (18:20) 0 0 0 0 0
30-05-2019 27.9 (17:10) 10.7 (00:00) 19.3 8.33 (23:40) 4.17 (22:50) 0 0 0 0 0
29-05-2019 24.3 (17:50) 9.2 (00:00) 16.7 10 (16:30) 3.33 (16:50) 0 0 0 0 0
28-05-2019 22.8 (16:20) 11.4 (00:00) 17.1 10.83 (19:00) 3.89 (16:40) 0 0 0 0 0
27-05-2019 25.8 (19:20) 12.3 (00:00) 19 8.06 (14:10) 2.78 (11:00) 0 0 0 0 0
26-05-2019 23.9 (16:40) 10.5 (00:00) 17.2 9.17 (20:00) 3.06 (20:10) 0 0 0 0 0
25-05-2019 22.5 (17:10) 11.8 (00:00) 17.2 7.22 (14:40) 3.61 (19:40) 0.2 0 0 0.2 0
24-05-2019 19.7 (00:20) 13.4 (00:00) 16.6 5 (03:00) 2.22 (00:40) 19.8 4.8 13.4 1 0.6
23-05-2019 29.7 (15:20) 14.6 (00:00) 22.2 8.33 (22:20) 4.44 (22:30) 0 0 0 0 0
22-05-2019 26.9 (17:00) 11.1 (00:00) 19 7.5 (15:50) 3.06 (19:30) 0 0 0 0 0
21-05-2019 25.6 (16:10) 9 (05:20) 17.3 7.5 (17:30) 3.06 (17:40) 0 0 0 0 0

Gráficas

Temp. máximas Temp. mínimas Temp. medias Precipitaciones Rachas de viento máximas Velocidades máximas media en intervalos de 10 minutos

Datos horarios

Fecha y hora oficial Temperatura (ºC) Velocidad del viento (km/h) Dirección del viento Racha (km/h) Dirección de racha Precipitación (mm) Presión (hPa) Tendencia (hPa) Humedad (%)
2019-06-19 23:00:00 24.7 5 Sudeste 19 Sudeste 0 -- -- 43
2019-06-19 22:00:00 25.3 4 Sur 17 Sudeste 0 -- -- 46
2019-06-19 21:00:00 26.9 8 Sudeste 18 Sudeste 0 -- -- 44
2019-06-19 20:00:00 30.2 6 Sudoeste 22 Sudeste 0 -- -- 40
2019-06-19 19:00:00 30.8 8 Sudeste 28 Sur 0 -- -- 40
2019-06-19 18:00:00 32.6 9 Sur 27 Sudeste 0 -- -- 37
2019-06-19 17:00:00 34.1 6 Sudoeste 18 Sur 0 -- -- 26
2019-06-19 16:00:00 33.6 7 Sur 22 Oeste 0 -- -- 25
2019-06-19 15:00:00 32.6 5 Sur -- -- -- -- -- 27
2019-06-19 14:00:00 -- -- -- -- -- -- -- -- --
2019-06-19 13:00:00 29.8 6 Sur -- -- -- -- -- 35
2019-06-19 12:00:00 -- -- -- -- -- -- -- -- --
2019-06-19 11:00:00 -- -- -- -- -- -- -- -- --
2019-06-19 10:00:00 -- -- -- -- -- -- -- -- --
2019-06-19 09:00:00 -- -- -- -- -- -- -- -- --
2019-06-19 08:00:00 -- -- -- -- -- -- -- -- --
2019-06-19 07:00:00 -- -- -- -- -- -- -- -- --
2019-06-19 06:00:00 -- -- -- -- -- -- -- -- --
2019-06-19 05:00:00 -- -- -- -- -- -- -- -- --
2019-06-19 04:00:00 -- -- -- -- -- -- -- -- --
2019-06-19 03:00:00 -- -- -- -- -- -- -- -- --
2019-06-19 02:00:00 -- -- -- -- -- -- -- -- --
2019-06-19 01:00:00 -- -- -- -- -- -- -- -- --
2019-06-19 00:00:00 -- -- -- -- -- -- -- -- --
2019-06-18 23:00:00 -- -- -- -- -- -- -- -- --
2019-06-18 22:00:00 -- -- -- -- -- -- -- -- --
2019-06-18 21:00:00 -- -- -- -- -- -- -- -- --
2019-06-18 20:00:00 -- -- -- -- -- -- -- -- --
2019-06-18 19:00:00 25.9 13 Sudeste 42 Sudeste 0 -- -- 35
2019-06-18 18:00:00 26.9 19 Sudeste 46 Sudeste 0 -- -- 39
2019-06-18 17:00:00 27.5 12 Sur 42 Este 0 -- -- 41
2019-06-18 16:00:00 28.8 12 Sudeste 35 Sudeste 0 -- -- 38
2019-06-18 15:00:00 29.1 12 Sur 33 Este 0 -- -- 35
2019-06-18 14:00:00 28.7 10 Sur 28 Este 0 -- -- 38
2019-06-18 13:00:00 28.2 9 Sudoeste 33 Sudeste 0 -- -- 39
2019-06-18 12:00:00 26.7 7 Sudeste 33 Sur 0 -- -- 44
2019-06-18 11:00:00 24.6 11 Sudeste 31 Sudeste 0 -- -- 43
2019-06-18 10:00:00 23.9 8 Sudeste 25 Sur 0 -- -- 38
2019-06-18 09:00:00 22.7 10 Sur 26 Sudeste 0 -- -- 37
2019-06-18 08:00:00 21.9 7 Sudeste 22 Sur 0 -- -- 38
2019-06-18 07:00:00 21.5 7 Este 24 Este 0 -- -- 38
2019-06-18 06:00:00 21.6 8 Sudeste 25 Este 0 -- -- 38
2019-06-18 05:00:00 21.5 8 Sudeste 31 Este 0 -- -- 39
2019-06-18 04:00:00 21.3 5 Noroeste 24 Sudeste 0 -- -- 40
2019-06-18 03:00:00 21.7 5 Noroeste 20 Nordeste 0 -- -- 39
2019-06-18 02:00:00 21.7 8 Sur 22 Sudoeste 0 -- -- 38
2019-06-18 01:00:00 21.7 6 Norte 25 Este 0 -- -- 37
2019-06-18 00:00:00 21.8 8 Sudeste 24 Este 0 -- -- 37
2019-06-17 23:00:00 21.9 8 Sur 25 Sudeste 0 -- -- 40
2019-06-17 22:00:00 22.2 8 Noroeste 26 Sudeste 0 -- -- 47
2019-06-17 21:00:00 23.5 7 Sudoeste 26 Sudeste 0 -- -- 49
2019-06-17 20:00:00 26 10 Sudoeste 27 Oeste 0 -- -- 45
2019-06-17 19:00:00 28 11 Sur 32 Sudeste 0 -- -- 44
2019-06-17 18:00:00 29.6 11 Sudeste 32 Este 0 -- -- 42
2019-06-17 17:00:00 30.7 8 Sudoeste 24 Sur 0 -- -- 41
2019-06-17 16:00:00 31.8 8 Sudoeste 36 Sudoeste 0 -- -- 41
2019-06-17 15:00:00 32.4 6 Oeste 18 Noroeste 0 -- -- 29
2019-06-17 14:00:00 30.8 5 Sur 17 Sudoeste 0 -- -- 33
2019-06-17 13:00:00 29.5 4 Sudeste 15 Sur 0 -- -- 36
2019-06-17 12:00:00 27.3 7 Sudoeste 17 Oeste 0 -- -- 39
2019-06-17 11:00:00 25 8 Sudoeste 16 Noroeste 0 -- -- 42
2019-06-17 10:00:00 22.9 6 Sudoeste 13 Sudoeste 0 -- -- 42
2019-06-17 09:00:00 19.4 4 Sur 10 Sur 0 -- -- 46
2019-06-17 08:00:00 16.5 2 Sudeste 4 Sudoeste 0 -- -- 52
2019-06-17 07:00:00 17 0 Calma 13 Sudoeste 0 -- -- 50
2019-06-17 06:00:00 18.3 3 Noroeste 14 Sudeste 0 -- -- 46
2019-06-17 05:00:00 17.9 2 Nordeste 9 Oeste 0 -- -- 48
2019-06-17 04:00:00 20.3 4 Sur 17 Sur 0 -- -- 43
2019-06-17 03:00:00 20.7 9 Sudeste 23 Sudeste 0 -- -- 40
2019-06-17 02:00:00 20.6 8 Sudeste 17 Sur 0 -- -- 41
2019-06-17 01:00:00 21 7 Sudeste 25 Este 0 -- -- 40
2019-06-17 00:00:00 21.1 5 Sur 20 Sudeste 0 -- -- 47
2019-06-16 23:00:00 21.1 8 Sur 19 Sudeste 0 -- -- 50
2019-06-16 22:00:00 21 6 Sudeste 21 Sudeste 0 -- -- 56
2019-06-16 21:00:00 21.9 8 Sudeste 22 Sudeste 0 -- -- 54
2019-06-16 20:00:00 23.1 7 Sur 21 Sudeste 0 -- -- 53
2019-06-16 19:00:00 24.9 9 Sudeste 23 Sudeste 0 -- -- 50
2019-06-16 18:00:00 25.9 9 Sudoeste 26 Oeste 0 -- -- 45
2019-06-16 17:00:00 27.5 8 Noroeste 35 Oeste 0 -- -- 40
2019-06-16 16:00:00 29.1 8 Sudoeste 21 Oeste 0 -- -- 38
2019-06-16 15:00:00 29.1 6 Noroeste 19 Oeste 0 -- -- 35
2019-06-16 14:00:00 27.8 5 Norte 17 Noroeste 0 -- -- 36
2019-06-16 13:00:00 26.6 6 Noroeste 15 Oeste 0 -- -- 42
2019-06-16 12:00:00 24.7 5 Oeste 13 Oeste 0 -- -- 47
2019-06-16 11:00:00 22.5 6 Noroeste 15 Noroeste 0 -- -- 55
2019-06-16 10:00:00 20.1 5 Noroeste 11 Oeste 0 -- -- 64
2019-06-16 09:00:00 16.1 2 Nordeste 4 Nordeste 0 -- -- 80
2019-06-16 08:00:00 14.6 0 Calma 4 Sudeste 0 -- -- 85
2019-06-16 07:00:00 14.5 0 Calma 5 Sudeste 0 -- -- 84
2019-06-16 06:00:00 15.9 2 Oeste 16 Este 0 -- -- 78
2019-06-16 05:00:00 16.5 6 Sudeste 17 Sudeste 0 -- -- 78
2019-06-16 04:00:00 16.6 5 Sur 24 Sudeste 0 -- -- 78
2019-06-16 03:00:00 16.7 8 Sudeste 23 Sudeste 0 -- -- 78
2019-06-16 02:00:00 17.1 10 Sudeste 27 Sudeste 0 -- -- 77
2019-06-16 01:00:00 17.4 12 Sudeste 27 Sudeste 0 -- -- 78
2019-06-16 00:00:00 18 12 Sudeste 30 Sudeste 0 -- -- 77
2019-06-15 23:00:00 19.3 11 Sudeste 23 Sur 0 -- -- 69
2019-06-15 22:00:00 21.8 5 Sur 15 Sudeste 0 -- -- 50
2019-06-15 21:00:00 24.7 3 Sudoeste 10 Sudoeste 0 -- -- 29
2019-06-15 20:00:00 28 4 Sur 19 Oeste 0 -- -- 23
2019-06-15 19:00:00 28.4 5 Oeste 22 Noroeste 0 -- -- 23
2019-06-15 18:00:00 28.5 6 Sudoeste 24 Oeste 0 -- -- 25
2019-06-15 17:00:00 28.1 6 Sur 24 Noroeste 0 -- -- 26
2019-06-15 16:00:00 27.2 9 Sudoeste 32 Sudoeste 0 -- -- 28
2019-06-15 15:00:00 26.8 8 Sudoeste 22 Sudoeste 0 -- -- 31
2019-06-15 14:00:00 25.8 7 Nordeste 21 Oeste 0 -- -- 34
2019-06-15 13:00:00 24.4 8 Oeste 22 Norte 0 -- -- 42
2019-06-15 12:00:00 22.4 8 Este 22 Noroeste 0 -- -- 45
2019-06-15 11:00:00 20.6 8 Sudoeste 22 Sudoeste 0 -- -- 51
2019-06-15 10:00:00 18.3 6 Oeste 19 Oeste 0 -- -- 62
2019-06-15 09:00:00 15.6 5 Sur 15 Sudoeste 0 -- -- 72
2019-06-15 08:00:00 14.9 3 Sur 12 Sudoeste 0 -- -- 76
2019-06-15 07:00:00 15 4 Noroeste 12 Nordeste 0 -- -- 75
2019-06-15 06:00:00 16 2 Norte 12 Nordeste 0 -- -- 71
2019-06-15 05:00:00 16.3 4 Este 8 Este 0 -- -- 73
2019-06-15 04:00:00 16.7 0 Calma 4 Sudeste 0 -- -- 65
2019-06-15 03:00:00 18.7 3 Este 15 Sur 0 -- -- 60
2019-06-15 02:00:00 21 5 Oeste 23 Sudeste 0 -- -- 51
2019-06-15 01:00:00 21.9 13 Sudeste 28 Este 0 -- -- 49
2019-06-15 00:00:00 21.2 10 Sudeste 31 Este 0 -- -- 53
2019-06-14 23:00:00 21 7 Este 24 Sudeste 0 -- -- 54
2019-06-14 22:00:00 22.1 6 Este 26 Sudeste 0 -- -- 54
2019-06-14 21:00:00 24.1 4 Sudoeste 23 Este 0 -- -- 52
2019-06-14 20:00:00 26.8 6 Sur 19 Sudeste 0 -- -- 46
2019-06-14 19:00:00 28.8 8 Sur 24 Noroeste 0 -- -- 40
2019-06-14 18:00:00 29.7 5 Sur 18 Sudoeste 0 -- -- 34
2019-06-14 17:00:00 28.6 6 Noroeste 19 Noroeste 0 -- -- 34
2019-06-14 16:00:00 27.1 6 Oeste 21 Noroeste 0 -- -- 36
2019-06-14 15:00:00 24.7 6 Sudoeste 14 Noroeste 0 -- -- 37
2019-06-14 14:00:00 24.5 6 Oeste 21 Oeste 0 -- -- 38
2019-06-14 13:00:00 24.6 6 Norte 18 Noroeste 0 -- -- 41
2019-06-14 12:00:00 22.1 7 Noroeste 17 Sudoeste 0 -- -- 42
2019-06-14 11:00:00 20.8 9 Noroeste 15 Noroeste 0 -- -- 47
2019-06-14 10:00:00 19.7 5 Noroeste 13 Noroeste 0 -- -- 44
2019-06-14 09:00:00 17.1 6 Norte 15 Norte 0 -- -- 47
2019-06-14 08:00:00 15.8 4 Sudeste 8 Sudeste 0 -- -- 55
2019-06-14 07:00:00 15.4 3 Nordeste 8 Este 0 -- -- 53
2019-06-14 06:00:00 15.7 3 Sudeste 12 Nordeste 0 -- -- 51
2019-06-14 05:00:00 15.7 4 Sudeste 13 Sudoeste 0 -- -- 50
2019-06-14 04:00:00 15.7 7 Sudeste 14 Sudeste 0 -- -- 49
2019-06-14 03:00:00 15.3 6 Nordeste 10 Este 0 -- -- 47
2019-06-14 02:00:00 16 3 Noroeste 10 Este 0 -- -- 44
2019-06-14 01:00:00 17 3 Noroeste 13 Noroeste 0 -- -- 40
2019-06-14 00:00:00 17.7 6 Noroeste 17 Sudoeste 0 -- -- 40
2019-06-13 23:00:00 18.4 8 Sudoeste 22 Noroeste 0 -- -- 36
2019-06-13 22:00:00 18.4 9 Sudoeste 32 Sudeste 0 -- -- 43
2019-06-13 21:00:00 18.9 8 Sudoeste 30 Sudoeste 0 -- -- 40
2019-06-13 20:00:00 20.1 6 Norte 24 Este 0 -- -- 38
2019-06-13 19:00:00 21.7 8 Norte 26 Este 0 -- -- 37
2019-06-13 18:00:00 22.7 7 Oeste 35 Este 0 -- -- 43
2019-06-13 17:00:00 21.2 7 Noroeste 27 Sudeste 0 -- -- 51
2019-06-13 16:00:00 23.4 11 Sudoeste 26 Sur 0 -- -- 47
2019-06-13 15:00:00 24.7 7 Noroeste 31 Noroeste 0 -- -- 47
2019-06-13 14:00:00 23.6 9 Oeste 26 Nordeste 0 -- -- 50
2019-06-13 13:00:00 22.1 9 Sudeste 29 Este 0 -- -- 54
2019-06-13 12:00:00 19.8 8 Sur 24 Sur 0 -- -- 59
2019-06-13 11:00:00 18.4 7 Sudoeste 27 Sudeste 0 -- -- 54
2019-06-13 10:00:00 17.8 6 Sur 25 Sudoeste 0 -- -- 54
2019-06-13 09:00:00 16.8 8 Sudoeste 22 Sudeste 0 -- -- 59
2019-06-13 08:00:00 16.4 11 Sur 25 Este 0 -- -- 63
2019-06-13 07:00:00 15.7 6 Noroeste 21 Oeste 0 -- -- 64
2019-06-13 06:00:00 15.3 7 Oeste 24 Norte 0 -- -- 61
2019-06-13 05:00:00 15.1 9 Noroeste 27 Sur 0 -- -- 59
2019-06-13 04:00:00 14.7 7 Noroeste 28 Nordeste 0 -- -- 55
2019-06-13 03:00:00 14.4 7 Oeste 23 Sudoeste 0 -- -- 65
2019-06-13 02:00:00 14.5 6 Noroeste 22 Oeste 0 -- -- 60
2019-06-13 01:00:00 14.8 8 Noroeste 24 Norte 0 -- -- 53
2019-06-13 00:00:00 14.7 9 Noroeste 29 Sudeste 0 -- -- 54
2019-06-12 23:00:00 15.2 10 Oeste 30 Sudoeste 0 -- -- 49
2019-06-12 22:00:00 16.2 6 Sudoeste 27 Sudoeste 0 -- -- 43
2019-06-12 21:00:00 17.6 9 Oeste 27 Sudeste 0 -- -- 39
2019-06-12 20:00:00 20.8 9 Sur 31 Sudoeste 0 -- -- 33
2019-06-12 19:00:00 22.8 8 Sudeste 26 Oeste 0 -- -- 32
2019-06-12 18:00:00 22.8 8 Sur 24 Sudoeste 0 -- -- 36
2019-06-12 17:00:00 24 9 Noroeste 21 Noroeste 0 -- -- 28
2019-06-12 16:00:00 23.4 10 Noroeste 21 Oeste 0 -- -- 28
2019-06-12 15:00:00 22.9 8 Noroeste 23 Oeste 0 -- -- 30
2019-06-12 14:00:00 21.5 7 Sur 20 Oeste 0 -- -- 33
2019-06-12 13:00:00 20.1 6 Norte 18 Oeste 0 -- -- 35
2019-06-12 12:00:00 18 8 Sudoeste 19 Noroeste 0 -- -- 42
2019-06-12 11:00:00 16 6 Sudeste 18 Sudoeste 0 -- -- 49
2019-06-12 10:00:00 13.5 6 Noroeste 15 Nordeste 0 -- -- 59
2019-06-12 09:00:00 9.7 3 Sur 7 Sur 0 -- -- 74
2019-06-12 08:00:00 7.7 3 Este 5 Sudeste 0 -- -- 80
2019-06-12 07:00:00 8.4 0 Calma 10 Este 0 -- -- 75
2019-06-12 06:00:00 9 3 Este 11 Norte 0 -- -- 72
2019-06-12 05:00:00 9 0 Calma 12 Este 0 -- -- 72
2019-06-12 04:00:00 9.5 5 Sudeste 10 Sudeste 0 -- -- 71
2019-06-12 03:00:00 9.5 2 Este 9 Este 0 -- -- 69
2019-06-12 02:00:00 9.7 0 Calma 6 Oeste 0 -- -- 68
2019-06-12 01:00:00 10.8 0 Calma 6 Sudeste 0 -- -- 62
2019-06-12 00:00:00 12.5 3 Sudeste 8 Sur 0 -- -- 54
2019-06-11 23:00:00 14.1 3 Este 13 Sudeste 0 -- -- 50
2019-06-11 22:00:00 15.8 5 Sur 13 Sur 0 -- -- 44
2019-06-11 21:00:00 16.8 4 Sudeste 10 Sudeste 0 -- -- 50
2019-06-11 20:00:00 17.4 0 Calma 8 Sur 0 -- -- 55
2019-06-11 19:00:00 16.4 3 Este 11 Sudoeste 0 -- -- 60
2019-06-11 18:00:00 14.8 5 Sur 16 Sudoeste 0 -- -- 66
2019-06-11 17:00:00 15.6 7 Sudoeste 30 Sur 0 -- -- 59
2019-06-11 16:00:00 15.6 10 Sudoeste 27 Sudoeste 0 -- -- 60
2019-06-11 15:00:00 14.3 6 Sur 23 Sudeste 0 -- -- 71
2019-06-11 14:00:00 13.6 8 Sur 25 Sudoeste 0 -- -- 72
2019-06-11 13:00:00 12.4 8 Sudoeste 17 Oeste 0.2 -- -- 78
2019-06-11 12:00:00 11.6 5 Sudoeste 13 Sudoeste 0.2 -- -- 83
2019-06-11 11:00:00 11.9 3 Sur 12 Sur 0 -- -- 80
2019-06-11 10:00:00 12.1 5 Oeste 14 Oeste 0.2 -- -- 79
2019-06-11 09:00:00 12.2 6 Oeste 10 Oeste 0 -- -- 74
2019-06-11 08:00:00 12.2 4 Oeste 14 Oeste 0 -- -- 72
2019-06-11 07:00:00 12.7 4 Sur 20 Norte 0 -- -- 66
2019-06-11 06:00:00 13.1 3 Norte 10 Noroeste 0 -- -- 62
2019-06-11 05:00:00 13.4 8 Noroeste 13 Noroeste 0 -- -- 62
2019-06-11 04:00:00 13.6 2 Sudeste 10 Norte 0.2 -- -- 69
2019-06-11 03:00:00 15.3 4 Noroeste 14 Sudoeste 0 -- -- 50
2019-06-11 02:00:00 15.8 4 Oeste 18 Oeste 0 -- -- 47
2019-06-11 01:00:00 16.5 5 Sudoeste 14 Sur 0 -- -- 46
2019-06-11 00:00:00 17.7 6 Noroeste 17 Sudoeste 0 -- -- 45
2019-06-10 23:00:00 19.1 5 Sur 18 Sur 0 -- -- 42
2019-06-10 22:00:00 20.5 6 Sudoeste 19 Oeste 0 -- -- 40
2019-06-10 21:00:00 22.5 8 Oeste 22 Oeste 0 -- -- 37
2019-06-10 20:00:00 24.8 5 Sur 23 Oeste 0 -- -- 31
2019-06-10 19:00:00 26.2 5 Sudoeste 24 Sudoeste 0 -- -- 28
2019-06-10 18:00:00 26.6 8 Sudoeste 27 Sudoeste 0 -- -- 30
2019-06-10 17:00:00 26.2 8 Noroeste 25 Sur 0 -- -- 35
2019-06-10 16:00:00 25 9 Sudoeste 28 Sudoeste 0 -- -- 39
2019-06-10 15:00:00 24.2 7 Oeste 33 Oeste 0 -- -- 39
2019-06-10 14:00:00 22.7 7 Oeste 30 Oeste 0 -- -- 43
2019-06-10 13:00:00 21.4 9 Oeste 27 Oeste 0 -- -- 46
2019-06-10 12:00:00 19.8 8 Sudoeste 26 Sudoeste 0 -- -- 51
2019-06-10 11:00:00 17.5 7 Oeste 22 Oeste 0 -- -- 58
2019-06-10 10:00:00 16.4 6 Noroeste 23 Noroeste 0 -- -- 63
2019-06-10 09:00:00 14.1 7 Oeste 24 Noroeste 0 -- -- 70
2019-06-10 08:00:00 13.8 4 Noroeste 18 Sur 0 -- -- 72
2019-06-10 07:00:00 13.6 4 Oeste 14 Sur 0 -- -- 74
2019-06-10 06:00:00 13.9 3 Oeste 17 Oeste 0 -- -- 73
2019-06-10 05:00:00 14.6 4 Sudoeste 13 Norte 0 -- -- 72
2019-06-10 04:00:00 15.5 4 Sur 14 Oeste 0 -- -- 69
2019-06-10 03:00:00 16.6 6 Sudoeste 16 Oeste 0 -- -- 64
2019-06-10 02:00:00 17 3 Sur 6 Este 0 -- -- 41
2019-06-10 01:00:00 18.2 3 Este 11 Sudeste 0 -- -- 33
2019-06-10 00:00:00 20.4 5 Sudeste 14 Sur 0 -- -- 30
2019-06-09 23:00:00 20.8 6 Sur 20 Sudeste 0 -- -- 31
2019-06-09 22:00:00 21.2 10 Sudeste 26 Sur 0 -- -- 30
2019-06-09 21:00:00 22.3 7 Sur 22 Sudeste 0 -- -- 27
2019-06-09 20:00:00 25.8 6 Sur 24 Noroeste 0 -- -- 25
2019-06-09 19:00:00 26.4 8 Oeste 17 Oeste 0 -- -- 23
2019-06-09 18:00:00 26.7 6 Sur 17 Oeste 0 -- -- 24
2019-06-09 17:00:00 27.7 5 Sudoeste 11 Noroeste 0 -- -- 26
2019-06-09 16:00:00 27 4 Sudeste 14 Noroeste 0 -- -- 26
2019-06-09 15:00:00 26.5 3 Oeste 14 Sur 0 -- -- 26
2019-06-09 14:00:00 25 4 Sur 13 Noroeste 0 -- -- 27
2019-06-09 13:00:00 23.8 6 Noroeste 17 Noroeste 0 -- -- 28
2019-06-09 12:00:00 23.8 8 Noroeste 17 Sudoeste 0 -- -- 26
2019-06-09 11:00:00 22.6 4 Sudeste 17 Sudoeste 0 -- -- 28
2019-06-09 10:00:00 20.1 3 Oeste 6 Noroeste 0 -- -- 42
2019-06-09 09:00:00 17 3 Noroeste 9 Sudoeste 0 -- -- 49
2019-06-09 08:00:00 16.2 4 Nordeste 9 Este 0 -- -- 49
2019-06-09 07:00:00 15.8 4 Norte 8 Noroeste 0 -- -- 48
2019-06-09 06:00:00 16.3 4 Sudeste 13 Oeste 0 -- -- 45
2019-06-09 05:00:00 16.5 3 Nordeste 7 Nordeste 0 -- -- 47
2019-06-09 04:00:00 17.7 3 Nordeste 9 Este 0 -- -- 38
2019-06-09 03:00:00 19 3 Noroeste 16 Sur 0 -- -- 36
2019-06-09 02:00:00 18.2 5 Noroeste 17 Oeste 0 -- -- 40
2019-06-09 01:00:00 18 5 Oeste 17 Oeste 0 -- -- 43
2019-06-09 00:00:00 17.9 7 Oeste 29 Oeste 0 -- -- 44
2019-06-08 23:00:00 17.8 11 Oeste 24 Sur 0 -- -- 46
2019-06-08 22:00:00 17.9 10 Sudoeste 34 Sudeste 0 -- -- 50
2019-06-08 21:00:00 18.6 9 Sudeste 31 Este 0 -- -- 48
2019-06-08 20:00:00 19.6 9 Sudeste 34 Sudeste 0 -- -- 45
2019-06-08 19:00:00 21.5 12 Sudeste 35 Sudeste 0 -- -- 41
2019-06-08 18:00:00 23.1 12 Sudeste 31 Este 0 -- -- 40
2019-06-08 17:00:00 24 11 Sudeste 31 Este 0 -- -- 40
2019-06-08 16:00:00 24.4 9 Sudoeste 30 Oeste 0 -- -- 40
2019-06-08 15:00:00 24.6 11 Oeste 33 Noroeste 0 -- -- 38
2019-06-08 14:00:00 24.7 9 Sudoeste 25 Sudoeste 0 -- -- 38
2019-06-08 13:00:00 24.1 8 Oeste 19 Oeste 0 -- -- 40
2019-06-08 12:00:00 22.5 6 Sudoeste 19 Oeste 0 -- -- 50
2019-06-08 11:00:00 20.9 5 Norte 12 Noroeste 0 -- -- 56
2019-06-08 10:00:00 18.8 3 Oeste 9 Noroeste 0 -- -- 66
2019-06-08 09:00:00 15.1 4 Noroeste 8 Noroeste 0 -- -- 81
2019-06-08 08:00:00 13.4 0 Calma 4 Sudeste 0 -- -- 83
2019-06-08 07:00:00 13.2 0 Calma 6 Sudeste 0 -- -- 77
2019-06-08 06:00:00 15 3 Sur 13 Sudeste 0 -- -- 68
2019-06-08 05:00:00 15.3 3 Noroeste 15 Norte 0 -- -- 66
2019-06-08 04:00:00 16.4 4 Nordeste 20 Este 0 -- -- 63
2019-06-08 03:00:00 16.2 8 Sudeste 15 Sudeste 0 -- -- 52
2019-06-08 02:00:00 14.5 3 Nordeste 9 Sudeste 0 -- -- 44
2019-06-08 01:00:00 15.2 0 Calma 5 Sudeste 0 -- -- 45
2019-06-08 00:00:00 17 0 Calma 8 Este 0 -- -- 40
2019-06-07 23:00:00 18.4 5 Este 9 Este 0 -- -- 36
2019-06-07 22:00:00 19.8 5 Este 12 Este 0 -- -- 33
2019-06-07 21:00:00 21.6 6 Nordeste 18 Este 0 -- -- 30
2019-06-07 20:00:00 24.6 6 Norte 22 Nordeste 0 -- -- 27
2019-06-07 19:00:00 25.1 9 Sudeste 24 Sudoeste 0 -- -- 24
2019-06-07 18:00:00 25.5 9 Sudoeste 28 Sudoeste 0 -- -- 24
2019-06-07 17:00:00 25.3 9 Nordeste 26 Oeste 0 -- -- 25
2019-06-07 16:00:00 24.8 12 Sudoeste 26 Oeste 0 -- -- 27
2019-06-07 15:00:00 23.8 8 Noroeste 28 Sudoeste 0 -- -- 34
2019-06-07 14:00:00 22.6 8 Nordeste 24 Nordeste 0 -- -- 42
2019-06-07 13:00:00 20.9 8 Este 24 Sudeste 0 -- -- 51
2019-06-07 12:00:00 20.2 8 Este 26 Este 0 -- -- 57
2019-06-07 11:00:00 19.5 6 Sur 28 Sur 0 -- -- 64
2019-06-07 10:00:00 20.4 5 Sur 21 Sudeste 0 -- -- 64
2019-06-07 09:00:00 17.6 9 Sur 24 Sudeste 0 -- -- 74
2019-06-07 08:00:00 16.9 12 Sudeste 24 Sudeste 0 -- -- 76
2019-06-07 07:00:00 16.4 10 Sudeste 35 Sudeste 0 -- -- 78
2019-06-07 06:00:00 16.2 9 Este 28 Este 0 -- -- 78
2019-06-07 05:00:00 16.3 9 Oeste 36 Este 0 -- -- 78
2019-06-07 04:00:00 16.4 11 Oeste 36 Este 0 -- -- 78
2019-06-07 03:00:00 16.6 12 Sur 42 Sudeste 0 -- -- 77
2019-06-07 02:00:00 16.9 14 Sur 38 Sudeste 0 -- -- 75
2019-06-07 01:00:00 16.7 9 Sudoeste 35 Sudeste 0 -- -- 77
2019-06-07 00:00:00 16.6 12 Sur 39 Sur 0 -- -- 77
2019-06-06 23:00:00 16.6 10 Oeste 34 Sur 0 -- -- 76
2019-06-06 22:00:00 16.7 12 Sudoeste 43 Sur 0 -- -- 74
2019-06-06 21:00:00 17.5 14 Sudeste 45 Sudeste 0 -- -- 66
2019-06-06 20:00:00 19.4 13 Sudeste 40 Sudeste 0 -- -- 58
2019-06-06 19:00:00 21.3 14 Sudeste 45 Sudeste 0 -- -- 48
2019-06-06 18:00:00 21.8 14 Sudeste 46 Sur 0 -- -- 50
2019-06-06 17:00:00 20.6 17 Sudeste 45 Este 0 -- -- 54
2019-06-06 16:00:00 21.2 11 Sur 28 Oeste 0 -- -- 54
2019-06-06 15:00:00 22.5 12 Oeste 32 Sudeste 0 -- -- 48
2019-06-06 14:00:00 22.2 13 Sur 40 Sudeste 0 -- -- 43
2019-06-06 13:00:00 22.8 10 Oeste 27 Oeste 0 -- -- 41
2019-06-06 12:00:00 22.2 8 Noroeste 22 Sudoeste 0 -- -- 44
2019-06-06 11:00:00 20.3 5 Oeste 18 Sudoeste 0 -- -- 48
2019-06-06 10:00:00 16.6 4 Noroeste 9 Noroeste 0 -- -- 55
2019-06-06 09:00:00 12.4 3 Sur 5 Sudeste 0 -- -- 69
2019-06-06 08:00:00 10.6 0 Calma 3 Sudeste 0 -- -- 76
2019-06-06 07:00:00 11.5 0 Calma 12 Nordeste 0 -- -- 70
2019-06-06 06:00:00 11.4 0 Calma 6 Este 0 -- -- 71
2019-06-06 05:00:00 12.5 4 Sudeste 9 Sur 0 -- -- 67
2019-06-06 04:00:00 13.1 4 Este 10 Nordeste 0 -- -- 65
2019-06-06 03:00:00 13.2 3 Nordeste 8 Nordeste 0 -- -- 64
2019-06-06 02:00:00 13.3 3 Este 10 Sur 0 -- -- 60
2019-06-06 01:00:00 13.7 2 Norte 11 Este 0 -- -- 58
2019-06-06 00:00:00 15.1 5 Este 11 Sudoeste 0 -- -- 53
2019-06-05 23:00:00 16.1 4 Sudeste 15 Este 0 -- -- 50
2019-06-05 22:00:00 17.3 8 Nordeste 29 Sudoeste 0 -- -- 47
2019-06-05 21:00:00 18.5 8 Oeste 30 Sudoeste 0 -- -- 45
2019-06-05 20:00:00 20.3 7 Sudoeste 29 Sudoeste 0 -- -- 42
2019-06-05 19:00:00 20.8 11 Sur 37 Sur 0 -- -- 43
2019-06-05 18:00:00 20.6 12 Sur 40 Sudoeste 0 -- -- 44
2019-06-05 17:00:00 20.5 12 Sudoeste 39 Sudoeste 0 -- -- 43
2019-06-05 16:00:00 20.1 13 Sudoeste 28 Oeste 0 -- -- 47
2019-06-05 15:00:00 18.3 12 Sudoeste 33 Sudoeste 0 -- -- 55
2019-06-05 14:00:00 19.6 10 Oeste 31 Sur 0 -- -- 58
2019-06-05 13:00:00 19.4 8 Sudoeste 22 Sudoeste 0 -- -- 59
2019-06-05 12:00:00 16.8 4 Sur 13 Sur 0 -- -- 68
2019-06-05 11:00:00 15.3 3 Nordeste 13 Norte 0 -- -- 77
2019-06-05 10:00:00 16.1 6 Oeste 15 Sudoeste 0 -- -- 74
2019-06-05 09:00:00 17.7 5 Oeste 20 Sudeste 0 -- -- 79
2019-06-05 08:00:00 17.7 8 Sudeste 28 Oeste 0 -- -- 77
2019-06-05 07:00:00 17.4 9 Oeste 31 Sur 0 -- -- 78
2019-06-05 06:00:00 17.2 13 Sudoeste 29 Sudoeste 0 -- -- 77
2019-06-05 05:00:00 17.1 10 Sudoeste 25 Sur 0 -- -- 77
2019-06-05 04:00:00 17.2 9 Sudoeste 24 Sur 0 -- -- 76
2019-06-05 03:00:00 17.6 7 Sudoeste 31 Sudeste 0 -- -- 73
2019-06-05 02:00:00 18.2 11 Nordeste 40 Sudeste 0 -- -- 67
2019-06-05 01:00:00 18.7 16 Sudeste 44 Este 0 -- -- 65
2019-06-05 00:00:00 19.2 11 Sur 38 Sudeste 0 -- -- 61
2019-06-04 23:00:00 19 12 Sudeste 50 Sur 0 -- -- 64
2019-06-04 22:00:00 19 12 Sur 35 Sur 0 -- -- 68
2019-06-04 21:00:00 19.7 11 Sudoeste 44 Este 0 -- -- 62
2019-06-04 20:00:00 22.1 17 Sudeste 46 Sudoeste 0 -- -- 51
2019-06-04 19:00:00 23.9 15 Sudoeste 46 Sur 0 -- -- 47
2019-06-04 18:00:00 24.5 15 Sur 41 Este 0 -- -- 48
2019-06-04 17:00:00 26 14 Sudeste 48 Sudeste 0 -- -- 45
2019-06-04 16:00:00 26.7 11 Sudeste 35 Sudeste 0 -- -- 44
2019-06-04 15:00:00 26.8 10 Sudeste 33 Sudeste 0 -- -- 45
2019-06-04 14:00:00 26.7 9 Sudeste 35 Sur 0 -- -- 47
2019-06-04 13:00:00 25.7 14 Sudeste 30 Sudeste 0 -- -- 47
2019-06-04 12:00:00 24.7 10 Sudeste 31 Sudeste 0 -- -- 47
2019-06-04 11:00:00 22.9 11 Sur 36 Sur 0 -- -- 50
2019-06-04 10:00:00 21.7 16 Sudeste 37 Este 0 -- -- 46
2019-06-04 09:00:00 20.2 14 Sudeste 36 Sudeste 0 -- -- 44
2019-06-04 08:00:00 19.7 11 Sudeste 32 Sudeste 0 -- -- 44
2019-06-04 07:00:00 19.7 12 Sudeste 30 Este 0 -- -- 38
2019-06-04 06:00:00 19.8 8 Sur 26 Sudeste 0 -- -- 37
2019-06-04 05:00:00 20 8 Sudeste 29 Este 0 -- -- 37
2019-06-04 04:00:00 20.2 12 Sudeste 37 Este 0 -- -- 38
2019-06-04 03:00:00 20.1 15 Sudeste 39 Este 0 -- -- 41
2019-06-04 02:00:00 19.8 10 Sudeste 40 Sudoeste 0 -- -- 45
2019-06-04 01:00:00 20 9 Sudeste 31 Sur 0 -- -- 44
2019-06-04 00:00:00 19.8 10 Sudoeste 31 Sudoeste 0 -- -- 50
2019-06-03 23:00:00 20.1 11 Sudoeste 28 Este 0 -- -- 47
2019-06-03 22:00:00 20.5 10 Oeste 37 Sudoeste 0 -- -- 43
2019-06-03 21:00:00 21.2 9 Noroeste 31 Sudeste 0 -- -- 44
2019-06-03 20:00:00 22.8 17 Sudeste 40 Sudeste 0 -- -- 48
2019-06-03 19:00:00 26 9 Sudeste 29 Sur 0 -- -- 38
2019-06-03 18:00:00 26.5 11 Sudeste 36 Este 0 -- -- 39
2019-06-03 17:00:00 27 12 Sudeste 40 Sudeste 0 -- -- 37
2019-06-03 16:00:00 27.4 11 Sudeste 37 Sudeste 0 -- -- 37
2019-06-03 15:00:00 27.6 13 Sudeste 34 Sudeste 0 -- -- 38
2019-06-03 14:00:00 27.1 7 Sudoeste 31 Oeste 0 -- -- 35
2019-06-03 13:00:00 27.3 9 Sur 29 Sudeste 0 -- -- 35
2019-06-03 12:00:00 26.4 8 Sur 32 Este 0 -- -- 35
2019-06-03 11:00:00 25.2 13 Sudeste 36 Sudeste 0 -- -- 35
2019-06-03 10:00:00 23.8 12 Sudeste 28 Sudeste 0 -- -- 35
2019-06-03 09:00:00 21.6 7 Sudeste 28 Este 0 -- -- 35
2019-06-03 08:00:00 20.9 7 Sudeste 26 Sudeste 0 -- -- 36
2019-06-03 07:00:00 20.8 10 Sudeste 31 Sudeste 0 -- -- 35
2019-06-03 06:00:00 20.6 7 Sudeste 24 Sudoeste 0 -- -- 35
2019-06-03 05:00:00 20.5 8 Sur 27 Sudeste 0 -- -- 35
2019-06-03 04:00:00 20.2 6 Sur 22 Este 0 -- -- 36
2019-06-03 03:00:00 20.1 7 Sudeste 27 Sudeste 0 -- -- 37
2019-06-03 02:00:00 20.4 7 Sur 26 Este 0 -- -- 39
2019-06-03 01:00:00 20.2 8 Este 27 Este 0 -- -- 40
2019-06-03 00:00:00 20.5 7 Oeste 24 Nordeste 0 -- -- 37
2019-06-02 23:00:00 20.5 10 Este 26 Este 0 -- -- 36
2019-06-02 22:00:00 20.7 8 Sudeste 27 Este 0 -- -- 37
2019-06-02 21:00:00 22.4 9 Sur 27 Sudeste 0 -- -- 38
2019-06-02 20:00:00 25.2 11 Sur 30 Sur 0 -- -- 38
2019-06-02 19:00:00 26.7 10 Sudeste 37 Sudeste 0 -- -- 39
2019-06-02 18:00:00 27.6 14 Sudeste 32 Sudeste 0 -- -- 39
2019-06-02 17:00:00 28.7 9 Sur 33 Sudeste 0 -- -- 38
2019-06-02 16:00:00 28.8 12 Sudeste 28 Sudeste 0 -- -- 38
2019-06-02 15:00:00 28.5 9 Sur 28 Noroeste 0 -- -- 40
2019-06-02 14:00:00 27.9 13 Oeste 28 Oeste 0 -- -- 41
2019-06-02 13:00:00 27.2 10 Sudoeste 26 Sudoeste 0 -- -- 34
2019-06-02 12:00:00 26.3 9 Sudoeste 26 Noroeste 0 -- -- 36
2019-06-02 11:00:00 24.9 7 Sur 20 Sudeste 0 -- -- 37
2019-06-02 10:00:00 23.3 9 Sur 24 Sur 0 -- -- 36
2019-06-02 09:00:00 21 9 Sur 24 Nordeste 0 -- -- 36
2019-06-02 08:00:00 18.9 10 Sudeste 22 Sudeste 0 -- -- 42
2019-06-02 07:00:00 15.8 0 Calma 6 Sur 0 -- -- 53
2019-06-02 06:00:00 17.6 0 Calma 12 Este 0 -- -- 47
2019-06-02 05:00:00 19.9 7 Sudeste 20 Este 0 -- -- 39
2019-06-02 04:00:00 20 4 Sudoeste 25 Sur 0 -- -- 39
2019-06-02 03:00:00 20 7 Sudeste 25 Este 0 -- -- 38
2019-06-02 02:00:00 19.8 5 Sudoeste 22 Sur 0 -- -- 39
2019-06-02 01:00:00 20.4 6 Sudoeste 22 Este 0 -- -- 40
2019-06-02 00:00:00 20.6 5 Nordeste 20 Oeste 0 -- -- 42
2019-06-01 23:00:00 20.7 5 Nordeste 19 Sudeste 0 -- -- 45
2019-06-01 22:00:00 21.2 6 Sudeste 21 Sudeste 0 -- -- 45
2019-06-01 21:00:00 22.5 8 Sudeste 26 Sudeste 0 -- -- 46
2019-06-01 20:00:00 25.2 10 Sudeste 26 Sudeste 0 -- -- 43
2019-06-01 19:00:00 26.9 13 Sudeste 30 Sudeste 0 -- -- 40
2019-06-01 18:00:00 28.6 8 Sur 27 Sudeste 0 -- -- 36
2019-06-01 17:00:00 28.7 7 Noroeste 24 Sudeste 0 -- -- 37
2019-06-01 16:00:00 28.9 9 Sudoeste 24 Oeste 0 -- -- 37
2019-06-01 15:00:00 29.4 7 Noroeste 21 Sur 0 -- -- 36
2019-06-01 14:00:00 28.6 8 Oeste 22 Sudoeste 0 -- -- 35
2019-06-01 13:00:00 27.5 6 Sur 19 Sur 0 -- -- 37
2019-06-01 12:00:00 26.4 6 Sudoeste 15 Sur 0 -- -- 36
2019-06-01 11:00:00 24.9 6 Sudeste 15 Este 0 -- -- 37
2019-06-01 10:00:00 23 4 Sudoeste 14 Sudeste 0 -- -- 41
2019-06-01 09:00:00 17.7 3 Oeste 8 Oeste 0 -- -- 59
2019-06-01 08:00:00 15.6 0 Calma 6 Sur 0 -- -- 62
2019-06-01 07:00:00 16.8 0 Calma 11 Sudeste 0 -- -- 56
2019-06-01 06:00:00 17.9 3 Sur 12 Sudeste 0 -- -- 51
2019-06-01 05:00:00 19.4 5 Sudeste 18 Sudeste 0 -- -- 46
2019-06-01 04:00:00 19.5 7 Sudeste 21 Sudeste 0 -- -- 47
2019-06-01 03:00:00 19.3 7 Sudeste 19 Este 0 -- -- 47
2019-06-01 02:00:00 18.8 4 Sudeste 16 Sudeste 0 -- -- 50
2019-06-01 01:00:00 19.3 6 Sur 25 Sudeste 0 -- -- 51
2019-06-01 00:00:00 19.3 5 Sudoeste 18 Sudeste 0 -- -- 53
2019-05-31 23:00:00 19.4 6 Sudeste 19 Sudeste 0 -- -- 54
2019-05-31 22:00:00 19.5 5 Sur 23 Este 0 -- -- 57
2019-05-31 21:00:00 20.8 7 Sur 26 Sur 0 -- -- 55
2019-05-31 20:00:00 23.6 12 Sudeste 28 Sur 0 -- -- 48
2019-05-31 19:00:00 25.3 9 Oeste 32 Sudoeste 0 -- -- 42
2019-05-31 18:00:00 26 12 Oeste 29 Oeste 0 -- -- 40
2019-05-31 17:00:00 26.5 9 Sudoeste 31 Oeste 0 -- -- 39
2019-05-31 16:00:00 26.8 8 Oeste 30 Sur 0 -- -- 38
2019-05-31 15:00:00 26.8 6 Sur 26 Oeste 0 -- -- 37
2019-05-31 14:00:00 27.1 5 Sur 21 Oeste 0 -- -- 38
2019-05-31 13:00:00 25.7 6 Oeste 20 Sur 0 -- -- 38
2019-05-31 12:00:00 24.2 6 Oeste 15 Este 0 -- -- 39
2019-05-31 11:00:00 22.3 6 Sudoeste 20 Este 0 -- -- 40
2019-05-31 10:00:00 20.7 5 Sur 18 Este 0 -- -- 42
2019-05-31 09:00:00 18.2 7 Sur 14 Sudeste 0 -- -- 46
2019-05-31 08:00:00 15.6 5 Sudeste 16 Sudeste 0 -- -- 55
2019-05-31 07:00:00 15.3 3 Oeste 15 Sur 0 -- -- 53
2019-05-31 06:00:00 17.8 7 Sudeste 19 Este 0 -- -- 44
2019-05-31 05:00:00 18.2 8 Sudeste 18 Este 0 -- -- 43
2019-05-31 04:00:00 18.3 7 Este 22 Sudeste 0 -- -- 42
2019-05-31 03:00:00 18.2 8 Este 21 Este 0 -- -- 43
2019-05-31 02:00:00 17.8 4 Este 22 Este 0 -- -- 45
2019-05-31 01:00:00 17.8 4 Sur 22 Sudeste 0 -- -- 46
2019-05-31 00:00:00 18 5 Sudeste 30 Sudeste 0 -- -- 47
2019-05-30 23:00:00 18.3 14 Sudeste 27 Este 0 -- -- 48
2019-05-30 22:00:00 18.5 9 Sudeste 26 Sudeste 0 -- -- 54
2019-05-30 21:00:00 20.2 9 Sudeste 23 Sudeste 0 -- -- 54
2019-05-30 20:00:00 23.8 9 Sudeste 26 Sur 0 -- -- 48
2019-05-30 19:00:00 26 8 Sur 24 Sudoeste 0 -- -- 42
2019-05-30 18:00:00 26.7 8 Sudoeste 22 Sudoeste 0 -- -- 43
2019-05-30 17:00:00 27.8 5 Sudeste 19 Oeste 0 -- -- 32
2019-05-30 16:00:00 27 7 Noroeste 24 Oeste 0 -- -- 33
2019-05-30 15:00:00 25.7 7 Noroeste 20 Oeste 0 -- -- 35
2019-05-30 14:00:00 24.3 7 Oeste 24 Sudoeste 0 -- -- 38
2019-05-30 13:00:00 22.6 5 Sudoeste 17 Nordeste 0 -- -- 44
2019-05-30 12:00:00 20.8 7 Oeste 14 Oeste 0 -- -- 45
2019-05-30 11:00:00 18.9 5 Norte 15 Sudoeste 0 -- -- 53
2019-05-30 10:00:00 16.5 3 Este 9 Norte 0 -- -- 58
2019-05-30 09:00:00 12.9 2 Norte 9 Nordeste 0 -- -- 68
2019-05-30 08:00:00 11.9 4 Nordeste 9 Norte 0 -- -- 71
2019-05-30 07:00:00 10.9 2 Norte 10 Norte 0 -- -- 74
2019-05-30 06:00:00 11.5 0 Calma 9 Norte 0 -- -- 71
2019-05-30 05:00:00 12.1 3 Nordeste 11 Norte 0 -- -- 67
2019-05-30 04:00:00 13.1 3 Nordeste 12 Norte 0 -- -- 64
2019-05-30 03:00:00 13.2 3 Nordeste 8 Este 0 -- -- 64
2019-05-30 02:00:00 14 3 Sudeste 12 Norte 0 -- -- 61
2019-05-30 01:00:00 14.8 2 Este 9 Sur 0 -- -- 59
2019-05-30 00:00:00 15.4 2 Norte 8 Sudeste 0 -- -- 58
2019-05-29 23:00:00 17.2 3 Sudeste 11 Este 0 -- -- 51
2019-05-29 22:00:00 19 3 Sudeste 19 Sudoeste 0 -- -- 46
2019-05-29 21:00:00 20.6 5 Oeste 23 Sudoeste 0 -- -- 41
2019-05-29 20:00:00 23 8 Noroeste 27 Sudoeste 0 -- -- 35
2019-05-29 19:00:00 24 10 Oeste 27 Sur 0 -- -- 32
2019-05-29 18:00:00 24.3 9 Sudoeste 26 Sur 0 -- -- 32
2019-05-29 17:00:00 24 8 Noroeste 36 Sudoeste 0 -- -- 33
2019-05-29 16:00:00 23.5 9 Oeste 27 Oeste 0 -- -- 35
2019-05-29 15:00:00 22.8 8 Oeste 27 Oeste 0 -- -- 30
2019-05-29 14:00:00 21.4 9 Sur 30 Sudoeste 0 -- -- 35
2019-05-29 13:00:00 20 7 Noroeste 27 Sur 0 -- -- 44
2019-05-29 12:00:00 18 8 Oeste 22 Sudoeste 0 -- -- 50
2019-05-29 11:00:00 16.3 6 Noroeste 17 Sur 0 -- -- 55
2019-05-29 10:00:00 13.9 7 Noroeste 19 Norte 0 -- -- 65
2019-05-29 09:00:00 10.9 5 Noroeste 16 Sudoeste 0 -- -- 74
2019-05-29 08:00:00 9.7 4 Sudeste 12 Sur 0 -- -- 77
2019-05-29 07:00:00 9.2 4 Sudeste 8 Sur 0 -- -- 78
2019-05-29 06:00:00 9.7 3 Sudeste 10 Sur 0 -- -- 74
2019-05-29 05:00:00 9.8 2 Sur 11 Sudoeste 0 -- -- 74
2019-05-29 04:00:00 10.4 2 Sudoeste 7 Sudeste 0 -- -- 70
2019-05-29 03:00:00 11.2 0 Calma 8 Este 0 -- -- 67
2019-05-29 02:00:00 12.2 2 Oeste 12 Sudeste 0 -- -- 61
2019-05-29 01:00:00 13.3 4 Sudeste 19 Sudoeste 0 -- -- 56
2019-05-29 00:00:00 13.9 4 Sudoeste 16 Norte 0 -- -- 54
2019-05-28 23:00:00 14.9 5 Sur 20 Oeste 0 -- -- 51
2019-05-28 22:00:00 16 6 Oeste 27 Sudoeste 0 -- -- 48
2019-05-28 21:00:00 17.4 9 Noroeste 28 Sudoeste 0 -- -- 45
2019-05-28 20:00:00 19.9 10 Sudoeste 35 Sudoeste 0 -- -- 42
2019-05-28 19:00:00 21.8 12 Sudoeste 39 Sur 0 -- -- 38
2019-05-28 18:00:00 22.7 9 Sudoeste 31 Sudoeste 0 -- -- 36
2019-05-28 17:00:00 22.1 10 Sudoeste 34 Noroeste 0 -- -- 41
2019-05-28 16:00:00 22.3 12 Noroeste 37 Sur 0 -- -- 41
2019-05-28 15:00:00 21.8 10 Sudoeste 32 Sudoeste 0 -- -- 43
2019-05-28 14:00:00 20.3 12 Sudoeste 33 Sudoeste 0 -- -- 43
2019-05-28 13:00:00 19.1 11 Oeste 27 Noroeste 0 -- -- 47
2019-05-28 12:00:00 17.5 11 Oeste 32 Oeste 0 -- -- 51
2019-05-28 11:00:00 15.9 9 Oeste 24 Sudoeste 0 -- -- 56
2019-05-28 10:00:00 14 9 Oeste 28 Oeste 0 -- -- 61
2019-05-28 09:00:00 12.4 7 Oeste 22 Sudoeste 0 -- -- 66
2019-05-28 08:00:00 11.8 6 Oeste 15 Noroeste 0 -- -- 67
2019-05-28 07:00:00 11.5 5 Oeste 21 Sur 0 -- -- 68
2019-05-28 06:00:00 11.9 4 Noroeste 13 Sur 0 -- -- 68
2019-05-28 05:00:00 12.5 4 Nordeste 15 Oeste 0 -- -- 68
2019-05-28 04:00:00 13.1 4 Noroeste 17 Oeste 0 -- -- 66
2019-05-28 03:00:00 13.9 5 Sudoeste 26 Oeste 0 -- -- 61
2019-05-28 02:00:00 14.9 8 Noroeste 23 Oeste 0 -- -- 61
2019-05-28 01:00:00 16.3 4 Sur 13 Sudoeste 0 -- -- 67
2019-05-28 00:00:00 17.8 4 Sudoeste 11 Sudoeste 0 -- -- 62
2019-05-27 23:00:00 19 4 Sur 18 Norte 0 -- -- 57
2019-05-27 22:00:00 20.4 8 Oeste 22 Sudoeste 0 -- -- 54
2019-05-27 21:00:00 22.3 6 Sudoeste 19 Sudoeste 0 -- -- 50
2019-05-27 20:00:00 24.7 7 Sudoeste 25 Oeste 0 -- -- 47
2019-05-27 19:00:00 25.6 5 Oeste 25 Sur 0 -- -- 44
2019-05-27 18:00:00 25.3 5 Sudoeste 25 Oeste 0 -- -- 44
2019-05-27 17:00:00 24.7 8 Sudoeste 25 Oeste 0 -- -- 44
2019-05-27 16:00:00 24 9 Noroeste 22 Sudoeste 0 -- -- 45
2019-05-27 15:00:00 21.8 7 Sudoeste 29 Sur 0 -- -- 51
2019-05-27 14:00:00 21.1 7 Oeste 24 Noroeste 0 -- -- 53
2019-05-27 13:00:00 18.9 7 Oeste 22 Oeste 0 -- -- 58
2019-05-27 12:00:00 18.5 7 Noroeste 20 Sur 0 -- -- 59
2019-05-27 11:00:00 16.6 10 Noroeste 20 Sudoeste 0 -- -- 65
2019-05-27 10:00:00 14.8 7 Oeste 18 Noroeste 0 -- -- 71
2019-05-27 09:00:00 13 6 Norte 16 Oeste 0 -- -- 78
2019-05-27 08:00:00 12.3 4 Oeste 13 Sudoeste 0 -- -- 80
2019-05-27 07:00:00 12.4 3 Oeste 13 Norte 0 -- -- 80
2019-05-27 06:00:00 12.4 3 Noroeste 8 Norte 0 -- -- 79
2019-05-27 05:00:00 12.6 2 Sur 12 Noroeste 0 -- -- 78
2019-05-27 04:00:00 13 4 Oeste 12 Sur 0 -- -- 75
2019-05-27 03:00:00 13.4 3 Norte 13 Oeste 0 -- -- 73
2019-05-27 02:00:00 14.3 5 Noroeste 18 Sudoeste 0 -- -- 70
2019-05-27 01:00:00 15.2 4 Oeste 20 Oeste 0 -- -- 68
2019-05-27 00:00:00 16.4 6 Sudoeste 15 Sudoeste 0 -- -- 64
2019-05-26 23:00:00 17.6 6 Sudoeste 15 Sudoeste 0 -- -- 61
2019-05-26 22:00:00 19.2 4 Oeste 19 Sudoeste 0 -- -- 56
2019-05-26 21:00:00 20.8 9 Sudoeste 30 Oeste 0 -- -- 50
2019-05-26 20:00:00 22.1 8 Sudoeste 33 Oeste 0 -- -- 47
2019-05-26 19:00:00 22.1 7 Oeste 22 Sudoeste 0 -- -- 45
2019-05-26 18:00:00 23 7 Sudoeste 26 Oeste 0 -- -- 45
2019-05-26 17:00:00 23.9 9 Noroeste 26 Sur 0 -- -- 43
2019-05-26 16:00:00 23.3 10 Oeste 29 Sur 0 -- -- 45
2019-05-26 15:00:00 22.5 9 Oeste 28 Sudoeste 0 -- -- 49
2019-05-26 14:00:00 21.3 8 Sudoeste 27 Sudoeste 0 -- -- 50
2019-05-26 13:00:00 19.5 10 Oeste 30 Oeste 0 -- -- 55
2019-05-26 12:00:00 17.9 8 Oeste 20 Sudoeste 0 -- -- 58
2019-05-26 11:00:00 16 9 Oeste 22 Oeste 0 -- -- 63
2019-05-26 10:00:00 14.1 6 Oeste 22 Oeste 0 -- -- 68
2019-05-26 09:00:00 11.6 6 Noroeste 19 Noroeste 0 -- -- 76
2019-05-26 08:00:00 10.7 4 Sur 9 Sur 0 -- -- 78
2019-05-26 07:00:00 10.6 3 Sur 15 Sudeste 0 -- -- 80
2019-05-26 06:00:00 11 5 Norte 14 Noroeste 0 -- -- 79
2019-05-26 05:00:00 11.7 5 Noroeste 22 Sudoeste 0 -- -- 78
2019-05-26 04:00:00 12 6 Oeste 21 Oeste 0 -- -- 77
2019-05-26 03:00:00 12.3 4 Noroeste 15 Noroeste 0 -- -- 76
2019-05-26 02:00:00 12.9 5 Noroeste 16 Oeste 0 -- -- 75
2019-05-26 01:00:00 14 5 Oeste 21 Oeste 0 -- -- 73
2019-05-26 00:00:00 15.4 6 Noroeste 18 Noroeste 0 -- -- 71
2019-05-25 23:00:00 16.1 3 Norte 10 Sudeste 0 -- -- 71
2019-05-25 22:00:00 17.3 3 Oeste 16 Oeste 0 -- -- 69
2019-05-25 21:00:00 18 4 Este 13 Sur 0 -- -- 68
2019-05-25 20:00:00 19 6 Sudoeste 41 Nordeste 0 -- -- 64
2019-05-25 19:00:00 20.7 3 Sudeste 15 Sudoeste 0 -- -- 58
2019-05-25 18:00:00 21 7 Sudoeste 23 Sur 0 -- -- 54
2019-05-25 17:00:00 21.8 4 Noroeste 15 Sudoeste 0 -- -- 56
2019-05-25 16:00:00 21.7 6 Oeste 22 Sudoeste 0 -- -- 53
2019-05-25 15:00:00 22.1 5 Oeste 26 Oeste 0 -- -- 55
2019-05-25 14:00:00 21 6 Sudoeste 20 Sudoeste 0.2 -- -- 58
2019-05-25 13:00:00 18.9 7 Sur 18 Oeste 0 -- -- 67
2019-05-25 12:00:00 16.6 4 Noroeste 14 Sudoeste 0 -- -- 72
2019-05-25 11:00:00 15.1 5 Norte 12 Noroeste 0 -- -- 78
2019-05-25 10:00:00 14.1 6 Oeste 13 Oeste 0 -- -- 81
2019-05-25 09:00:00 12.4 5 Sudoeste 12 Sur 0 -- -- 85
2019-05-25 08:00:00 11.9 2 Sudeste 11 Oeste 0 -- -- 88
2019-05-25 07:00:00 11.9 2 Sudoeste 6 Noroeste 0 -- -- 89
2019-05-25 06:00:00 12.1 3 Norte 9 Nordeste 0 -- -- 90
2019-05-25 05:00:00 12.4 2 Noroeste 9 Oeste 0 -- -- 90
2019-05-25 04:00:00 12.7 3 Noroeste 8 Oeste 0 -- -- 90
2019-05-25 03:00:00 13 4 Noroeste 9 Oeste 0 -- -- 90
2019-05-25 02:00:00 13.5 6 Oeste 11 Oeste 0 -- -- 91
2019-05-25 01:00:00 14.1 2 Oeste 6 Sudoeste 0 -- -- 94
2019-05-25 00:00:00 14.2 0 Calma 6 Norte 0 -- -- 93
2019-05-24 23:00:00 14.4 3 Noroeste 9 Norte 0 -- -- 93
2019-05-24 22:00:00 14.7 4 Norte 11 Norte 0.4 -- -- 92
2019-05-24 21:00:00 15.1 4 Nordeste 13 Sur 0.2 -- -- 90
2019-05-24 20:00:00 15.7 3 Sudeste 5 Sudeste 0 -- -- 88
2019-05-24 19:00:00 15.6 2 Oeste 5 Oeste 0 -- -- 87
2019-05-24 18:00:00 15.7 2 Sur 11 Sudoeste 0 -- -- 87
2019-05-24 17:00:00 15.2 3 Sudoeste 9 Sudoeste 0 -- -- 89
2019-05-24 16:00:00 14.3 4 Oeste 14 Oeste 0 -- -- 91
2019-05-24 15:00:00 14.2 5 Sudoeste 12 Sudoeste 0 -- -- 93
2019-05-24 14:00:00 13.7 4 Noroeste 13 Sudeste 0.4 -- -- 94
2019-05-24 13:00:00 14 5 Noroeste 12 Noroeste 0.6 -- -- 95
2019-05-24 12:00:00 13.5 3 Oeste 12 Noroeste 2.2 -- -- 95
2019-05-24 11:00:00 13.5 3 Sudeste 15 Sudoeste 4 -- -- 95
2019-05-24 10:00:00 13.4 4 Oeste 11 Oeste 3.6 -- -- 94
2019-05-24 09:00:00 13.4 3 Oeste 12 Oeste 2.2 -- -- 93
2019-05-24 08:00:00 13.9 3 Sur 9 Sudoeste 1.4 -- -- 92
2019-05-24 07:00:00 14.8 2 Noroeste 13 Noroeste 0 -- -- 92
2019-05-24 06:00:00 14.9 2 Norte 7 Sudeste 0.4 -- -- 92
2019-05-24 05:00:00 14.8 3 Sudeste 14 Oeste 0.6 -- -- 91
2019-05-24 04:00:00 15.1 4 Noroeste 9 Norte 2.8 -- -- 89
2019-05-24 03:00:00 15.9 7 Oeste 18 Noroeste 1 -- -- 83
2019-05-24 02:00:00 17.7 0 Calma 8 Oeste 0 -- -- 60
2019-05-24 01:00:00 18.7 2 Oeste 14 Sudeste 0 -- -- 54
2019-05-24 00:00:00 19.6 7 Sudeste 24 Sudeste 0 -- -- 49
2019-05-23 23:00:00 19.6 13 Sudeste 30 Sudeste 0 -- -- 50
2019-05-23 22:00:00 20.1 13 Sudeste 25 Sudeste 0 -- -- 55
2019-05-23 21:00:00 21 9 Este 26 Sudeste 0 -- -- 56
2019-05-23 20:00:00 22.5 9 Sudeste 23 Sudeste 0 -- -- 52
2019-05-23 19:00:00 24.7 10 Sudeste 25 Sudeste 0 -- -- 49
2019-05-23 18:00:00 24.9 9 Sudeste 21 Sudeste 0 -- -- 50
2019-05-23 17:00:00 27.4 6 Sudoeste 23 Sudoeste 0 -- -- 45
2019-05-23 16:00:00 28.9 10 Sur 21 Noroeste 0 -- -- 35
2019-05-23 15:00:00 29.4 6 Noroeste 20 Sudoeste 0 -- -- 28
2019-05-23 14:00:00 28.1 7 Norte 19 Oeste 0 -- -- 29
2019-05-23 13:00:00 27.3 6 Sudoeste 14 Noroeste 0 -- -- 34
2019-05-23 12:00:00 25.7 4 Sur 12 Sur 0 -- -- 34
2019-05-23 11:00:00 23.5 4 Noroeste 10 Noroeste 0 -- -- 39
2019-05-23 10:00:00 20.6 2 Sudoeste 6 Sudoeste 0 -- -- 42
2019-05-23 09:00:00 16.7 2 Norte 13 Sudeste 0 -- -- 51
2019-05-23 08:00:00 16.3 5 Oeste 15 Este 0 -- -- 48
2019-05-23 07:00:00 15.7 4 Sudoeste 23 Sudeste 0 -- -- 61
2019-05-23 06:00:00 15.6 9 Sudeste 20 Sudeste 0 -- -- 64
2019-05-23 05:00:00 15.2 3 Noroeste 11 Oeste 0 -- -- 63
2019-05-23 04:00:00 15.5 2 Noroeste 13 Oeste 0 -- -- 60
2019-05-23 03:00:00 17 3 Noroeste 15 Sur 0 -- -- 54
2019-05-23 02:00:00 18.1 9 Sudeste 20 Sudeste 0 -- -- 50
2019-05-23 01:00:00 18.9 6 Sudeste 19 Sudeste 0 -- -- 50
2019-05-23 00:00:00 19.1 8 Sudeste 20 Sudeste 0 -- -- 49
2019-05-22 23:00:00 19.1 7 Sudeste 19 Este 0 -- -- 48
2019-05-22 22:00:00 19.6 5 Sudeste 16 Sur 0 -- -- 47
2019-05-22 21:00:00 21 3 Sudeste 18 Sudoeste 0 -- -- 45
2019-05-22 20:00:00 24 9 Oeste 21 Sudeste 0 -- -- 38
2019-05-22 19:00:00 25.4 10 Sudeste 26 Sudeste 0 -- -- 35
2019-05-22 18:00:00 26.3 8 Sur 23 Sur 0 -- -- 36
2019-05-22 17:00:00 26.9 6 Sudoeste 25 Sudoeste 0 -- -- 28
2019-05-22 16:00:00 26.3 7 Noroeste 27 Oeste 0 -- -- 28
2019-05-22 15:00:00 25 8 Noroeste 22 Noroeste 0 -- -- 33
2019-05-22 14:00:00 23.7 6 Sur 18 Noroeste 0 -- -- 35
2019-05-22 13:00:00 22.7 8 Noroeste 21 Noroeste 0 -- -- 37
2019-05-22 12:00:00 20.6 8 Sudoeste 17 Noroeste 0 -- -- 41
2019-05-22 11:00:00 18.7 5 Sur 12 Sudoeste 0 -- -- 52
2019-05-22 10:00:00 16.3 4 Oeste 14 Oeste 0 -- -- 61
2019-05-22 09:00:00 12.7 3 Sudeste 11 Sudoeste 0 -- -- 74
2019-05-22 08:00:00 11.2 0 Calma 4 Nordeste 0 -- -- 81
2019-05-22 07:00:00 11.3 3 Nordeste 8 Norte 0 -- -- 78
2019-05-22 06:00:00 11.8 3 Sur 8 Sur 0 -- -- 77
2019-05-22 05:00:00 12.5 3 Sudeste 10 Sudeste 0 -- -- 79
2019-05-22 04:00:00 13.7 2 Nordeste 7 Oeste 0 -- -- 83
2019-05-22 03:00:00 15 3 Sudoeste 20 Este 0 -- -- 79
2019-05-22 02:00:00 14.4 3 Noroeste 14 Sudoeste 0 -- -- 80
2019-05-22 01:00:00 14.9 7 Oeste 12 Sudoeste 0 -- -- 76
2019-05-22 00:00:00 15.6 2 Norte 10 Oeste 0 -- -- 73
2019-05-21 23:00:00 17.2 5 Sur 19 Sudeste 0 -- -- 64
2019-05-21 22:00:00 17.7 8 Sudeste 19 Sudeste 0 -- -- 63
2019-05-21 21:00:00 18.6 9 Sudeste 26 Sudeste 0 -- -- 61
2019-05-21 20:00:00 21.5 6 Sudeste 23 Sudeste 0 -- -- 51
2019-05-21 19:00:00 23.2 8 Oeste 20 Sudoeste 0 -- -- 45
2019-05-21 18:00:00 22.9 6 Sur 27 Sur 0 -- -- 42
2019-05-21 17:00:00 24.7 5 Sur 21 Noroeste 0 -- -- 33
2019-05-21 16:00:00 25.4 7 Noroeste 17 Noroeste 0 -- -- 33
2019-05-21 15:00:00 23.9 10 Noroeste 20 Noroeste 0 -- -- 33
2019-05-21 14:00:00 22.7 5 Sur 16 Oeste 0 -- -- 37
2019-05-21 13:00:00 21.6 6 Norte 17 Oeste 0 -- -- 39
2019-05-21 12:00:00 20 5 Oeste 13 Noroeste 0 -- -- 44
2019-05-21 11:00:00 17.6 5 Noroeste 13 Oeste 0 -- -- 53
2019-05-21 10:00:00 14.7 6 Sudoeste 13 Oeste 0 -- -- 63
2019-05-21 09:00:00 11.7 3 Noroeste 13 Sudeste 0 -- -- 73
2019-05-21 08:00:00 11.2 5 Este 13 Este 0 -- -- 73
2019-05-21 07:00:00 10 4 Nordeste 11 Norte 0 -- -- 77
2019-05-21 06:00:00 9.4 4 Nordeste 8 Nordeste 0 -- -- 77
2019-05-21 05:00:00 9.3 0 Calma 4 Sur 0 -- -- 79
2019-05-21 04:00:00 10 0 Calma 4 Sudeste 0 -- -- 76
2019-05-21 03:00:00 10.7 0 Calma 5 Sudoeste 0 -- -- 71
2019-05-21 02:00:00 11.5 0 Calma 5 Sudeste 0 -- -- 66
2019-05-21 01:00:00 13 2 Este 5 Norte 0 -- -- 61
2019-05-21 00:00:00 13.6 3 Nordeste 7 Este 0 -- -- 56